sensor_id;sensor_type;location;lat;lon;timestamp;pressure;altitude;pressure_sealevel;temperature;humidity
35443;BME280;21561;55.654;37.592;2022-07-15T00:00:27;98248.72;;;15.90;100.00
35443;BME280;21561;55.654;37.592;2022-07-15T00:02:54;98240.97;;;15.89;100.00
35443;BME280;21561;55.654;37.592;2022-07-15T00:05:21;98232.16;;;15.90;100.00
35443;BME280;21561;55.654;37.592;2022-07-15T00:07:48;98233.31;;;15.84;100.00
35443;BME280;21561;55.654;37.592;2022-07-15T00:10:15;98241.25;;;15.82;99.75
35443;BME280;21561;55.654;37.592;2022-07-15T00:12:51;98243.88;;;15.82;99.37
35443;BME280;21561;55.654;37.592;2022-07-15T00:15:20;98242.97;;;15.83;99.41
35443;BME280;21561;55.654;37.592;2022-07-15T00:17:48;98242.97;;;15.83;99.26
35443;BME280;21561;55.654;37.592;2022-07-15T00:20:15;98241.25;;;15.82;99.63
35443;BME280;21561;55.654;37.592;2022-07-15T00:22:44;98242.97;;;15.83;99.38
35443;BME280;21561;55.654;37.592;2022-07-15T00:25:11;98240.47;;;15.80;99.79
35443;BME280;21561;55.654;37.592;2022-07-15T00:27:57;98234.34;;;15.81;99.24
35443;BME280;21561;55.654;37.592;2022-07-15T00:30:28;98240.47;;;15.80;97.59
35443;BME280;21561;55.654;37.592;2022-07-15T00:32:56;98240.41;;;15.82;97.14
35443;BME280;21561;55.654;37.592;2022-07-15T00:35:23;98248.19;;;15.83;97.47
35443;BME280;21561;55.654;37.592;2022-07-15T00:37:50;98246.47;;;15.82;97.41
35443;BME280;21561;55.654;37.592;2022-07-15T00:40:17;98248.34;;;15.80;98.05
35443;BME280;21561;55.654;37.592;2022-07-15T00:42:45;98245.72;;;15.80;98.11
35443;BME280;21561;55.654;37.592;2022-07-15T00:45:17;98258.97;;;15.77;98.70
35443;BME280;21561;55.654;37.592;2022-07-15T00:47:47;98250.31;;;15.75;98.57
35443;BME280;21561;55.654;37.592;2022-07-15T00:50:16;98250.31;;;15.75;99.50
35443;BME280;21561;55.654;37.592;2022-07-15T00:52:45;98246.91;;;15.73;100.00
35443;BME280;21561;55.654;37.592;2022-07-15T00:55:14;98246.22;;;15.70;100.00
35443;BME280;21561;55.654;37.592;2022-07-15T00:57:44;98255.91;;;15.68;100.00
35443;BME280;21561;55.654;37.592;2022-07-15T01:00:12;98243.88;;;15.65;100.00
35443;BME280;21561;55.654;37.592;2022-07-15T01:02:41;98244.78;;;15.64;100.00
35443;BME280;21561;55.654;37.592;2022-07-15T01:05:19;98245.00;;;15.59;100.00
35443;BME280;21561;55.654;37.592;2022-07-15T01:07:47;98269.47;;;15.58;100.00
35443;BME280;21561;55.654;37.592;2022-07-15T01:10:20;98274.00;;;15.55;100.00
35443;BME280;21561;55.654;37.592;2022-07-15T01:12:48;98267.81;;;15.56;100.00
35443;BME280;21561;55.654;37.592;2022-07-15T01:15:16;98278.59;;;15.50;100.00
35443;BME280;21561;55.654;37.592;2022-07-15T01:17:44;98275.22;;;15.48;100.00
35443;BME280;21561;55.654;37.592;2022-07-15T01:20:13;98281.53;;;15.43;100.00
35443;BME280;21561;55.654;37.592;2022-07-15T01:22:41;98280.81;;;15.40;100.00
35443;BME280;21561;55.654;37.592;2022-07-15T01:25:08;98293.09;;;15.38;100.00
35443;BME280;21561;55.654;37.592;2022-07-15T01:27:35;98288.75;;;15.38;100.00
35443;BME280;21561;55.654;37.592;2022-07-15T01:30:02;98292.25;;;15.37;100.00
35443;BME280;21561;55.654;37.592;2022-07-15T01:32:29;98294.09;;;15.35;100.00
35443;BME280;21561;55.654;37.592;2022-07-15T01:34:56;98290.59;;;15.36;100.00
35443;BME280;21561;55.654;37.592;2022-07-15T01:37:23;98294.88;;;15.37;100.00
35443;BME280;21561;55.654;37.592;2022-07-15T01:39:50;98308.88;;;15.36;100.00
35443;BME280;21561;55.654;37.592;2022-07-15T01:42:17;98308.94;;;15.35;100.00
35443;BME280;21561;55.654;37.592;2022-07-15T01:44:44;98306.41;;;15.33;100.00
35443;BME280;21561;55.654;37.592;2022-07-15T01:47:11;98308.19;;;15.33;100.00
35443;BME280;21561;55.654;37.592;2022-07-15T01:49:38;98297.94;;;15.28;100.00
35443;BME280;21561;55.654;37.592;2022-07-15T01:52:05;98303.94;;;15.30;100.00
35443;BME280;21561;55.654;37.592;2022-07-15T01:54:36;98303.16;;;15.28;100.00
35443;BME280;21561;55.654;37.592;2022-07-15T01:57:03;98299.72;;;15.27;100.00
35443;BME280;21561;55.654;37.592;2022-07-15T01:59:30;98293.72;;;15.25;100.00
35443;BME280;21561;55.654;37.592;2022-07-15T02:01:58;98294.56;;;15.26;100.00
35443;BME280;21561;55.654;37.592;2022-07-15T02:04:26;98291.16;;;15.24;100.00
35443;BME280;21561;55.654;37.592;2022-07-15T02:06:53;98294.69;;;15.23;100.00
35443;BME280;21561;55.654;37.592;2022-07-15T02:09:20;98309.47;;;15.24;100.00
35443;BME280;21561;55.654;37.592;2022-07-15T02:11:47;98301.75;;;15.21;100.00
35443;BME280;21561;55.654;37.592;2022-07-15T02:14:14;98306.97;;;15.21;100.00
35443;BME280;21561;55.654;37.592;2022-07-15T02:16:41;98306.16;;;15.20;100.00
35443;BME280;21561;55.654;37.592;2022-07-15T02:19:08;98319.28;;;15.19;100.00
35443;BME280;21561;55.654;37.592;2022-07-15T02:21:35;98317.56;;;15.18;100.00
35443;BME280;21561;55.654;37.592;2022-07-15T02:24:03;98326.34;;;15.17;100.00
35443;BME280;21561;55.654;37.592;2022-07-15T02:26:30;98322.97;;;15.15;100.00
35443;BME280;21561;55.654;37.592;2022-07-15T02:28:58;98336.94;;;15.14;100.00
35443;BME280;21561;55.654;37.592;2022-07-15T02:31:25;98323.22;;;15.08;100.00
35443;BME280;21561;55.654;37.592;2022-07-15T02:33:53;98324.16;;;15.07;100.00
35443;BME280;21561;55.654;37.592;2022-07-15T02:36:20;98325.06;;;15.06;100.00
35443;BME280;21561;55.654;37.592;2022-07-15T02:38:47;98315.53;;;15.05;100.00
35443;BME280;21561;55.654;37.592;2022-07-15T02:41:14;98322.41;;;15.08;100.00
35443;BME280;21561;55.654;37.592;2022-07-15T02:43:42;98320.03;;;15.02;100.00
35443;BME280;21561;55.654;37.592;2022-07-15T02:46:09;98316.72;;;14.98;100.00
35443;BME280;21561;55.654;37.592;2022-07-15T02:48:37;98316.72;;;14.98;100.00
35443;BME280;21561;55.654;37.592;2022-07-15T02:51:05;98327.03;;;15.01;100.00
35443;BME280;21561;55.654;37.592;2022-07-15T02:53:33;98331.38;;;15.02;100.00
35443;BME280;21561;55.654;37.592;2022-07-15T02:56:00;98335.66;;;15.03;100.00
35443;BME280;21561;55.654;37.592;2022-07-15T02:58:29;98334.69;;;15.06;100.00
35443;BME280;21561;55.654;37.592;2022-07-15T03:00:58;98329.41;;;15.07;100.00
35443;BME280;21561;55.654;37.592;2022-07-15T03:03:25;98323.09;;;15.12;100.00
35443;BME280;21561;55.654;37.592;2022-07-15T03:05:57;98326.34;;;15.17;100.00
35443;BME280;21561;55.654;37.592;2022-07-15T03:08:24;98324.50;;;15.19;100.00
35443;BME280;21561;55.654;37.592;2022-07-15T03:10:51;98334.81;;;15.22;100.00
35443;BME280;21561;55.654;37.592;2022-07-15T03:13:18;98335.53;;;15.25;100.00
35443;BME280;21561;55.654;37.592;2022-07-15T03:15:45;98342.84;;;15.36;100.00
35443;BME280;21561;55.654;37.592;2022-07-15T03:18:12;98349.50;;;15.43;100.00
35443;BME280;21561;55.654;37.592;2022-07-15T03:20:39;98357.84;;;15.50;99.43
35443;BME280;21561;55.654;37.592;2022-07-15T03:23:13;98361.03;;;15.57;99.23
35443;BME280;21561;55.654;37.592;2022-07-15T03:25:40;98353.69;;;15.65;99.70
35443;BME280;21561;55.654;37.592;2022-07-15T03:28:07;98358.59;;;15.71;98.85
35443;BME280;21561;55.654;37.592;2022-07-15T03:30:34;98356.66;;;15.76;98.97
35443;BME280;21561;55.654;37.592;2022-07-15T03:33:02;98353.25;;;15.74;98.88
35443;BME280;21561;55.654;37.592;2022-07-15T03:35:29;98357.75;;;15.71;99.18
35443;BME280;21561;55.654;37.592;2022-07-15T03:37:56;98353.50;;;15.68;99.16
35443;BME280;21561;55.654;37.592;2022-07-15T03:40:22;98352.75;;;15.66;98.96
35443;BME280;21561;55.654;37.592;2022-07-15T03:42:49;98369.50;;;15.62;98.58
35443;BME280;21561;55.654;37.592;2022-07-15T03:45:16;98374.75;;;15.62;98.83
35443;BME280;21561;55.654;37.592;2022-07-15T03:47:43;98380.03;;;15.60;98.93
35443;BME280;21561;55.654;37.592;2022-07-15T03:50:10;98379.28;;;15.58;99.12
35443;BME280;21561;55.654;37.592;2022-07-15T03:52:39;98364.72;;;15.53;99.48
35443;BME280;21561;55.654;37.592;2022-07-15T03:55:07;98358.72;;;15.51;99.31
35443;BME280;21561;55.654;37.592;2022-07-15T03:57:37;98364.72;;;15.53;99.19
35443;BME280;21561;55.654;37.592;2022-07-15T04:00:04;98360.34;;;15.53;99.76
35443;BME280;21561;55.654;37.592;2022-07-15T04:02:32;98369.00;;;15.54;99.64
35443;BME280;21561;55.654;37.592;2022-07-15T04:04:59;98375.00;;;15.56;99.51
35443;BME280;21561;55.654;37.592;2022-07-15T04:07:25;98379.34;;;15.57;100.00
35443;BME280;21561;55.654;37.592;2022-07-15T04:09:52;98379.97;;;15.62;99.89
35443;BME280;21561;55.654;37.592;2022-07-15T04:12:19;98380.44;;;15.70;99.59
35443;BME280;21561;55.654;37.592;2022-07-15T04:14:46;98374.38;;;15.70;98.75
35443;BME280;21561;55.654;37.592;2022-07-15T04:17:13;98389.16;;;15.71;98.23
35443;BME280;21561;55.654;37.592;2022-07-15T04:19:40;98379.28;;;15.77;98.67
35443;BME280;21561;55.654;37.592;2022-07-15T04:22:07;98380.81;;;15.81;98.58
35443;BME280;21561;55.654;37.592;2022-07-15T04:24:34;98392.81;;;15.86;97.69
35443;BME280;21561;55.654;37.592;2022-07-15T04:27:01;98404.66;;;15.93;97.52
35443;BME280;21561;55.654;37.592;2022-07-15T04:29:28;98408.06;;;15.95;97.80
35443;BME280;21561;55.654;37.592;2022-07-15T04:31:55;98408.69;;;16.00;97.68
35443;BME280;21561;55.654;37.592;2022-07-15T04:34:22;98408.53;;;16.03;96.84
35443;BME280;21561;55.654;37.592;2022-07-15T04:36:49;98413.63;;;16.06;96.02
35443;BME280;21561;55.654;37.592;2022-07-15T04:39:16;98424.69;;;16.11;96.94
35443;BME280;21561;55.654;37.592;2022-07-15T04:41:43;98429.78;;;16.14;96.11
35443;BME280;21561;55.654;37.592;2022-07-15T04:44:10;98422.56;;;16.19;96.15
35443;BME280;21561;55.654;37.592;2022-07-15T04:46:37;98432.69;;;16.26;95.99
35443;BME280;21561;55.654;37.592;2022-07-15T04:49:04;98427.31;;;16.29;95.25
35443;BME280;21561;55.654;37.592;2022-07-15T04:51:49;98441.03;;;16.34;95.31
35443;BME280;21561;55.654;37.592;2022-07-15T04:54:16;98434.50;;;16.42;94.62
35443;BME280;21561;55.654;37.592;2022-07-15T04:56:43;98443.81;;;16.48;94.54
35443;BME280;21561;55.654;37.592;2022-07-15T04:59:10;98444.28;;;16.56;94.49
35443;BME280;21561;55.654;37.592;2022-07-15T05:01:37;98447.34;;;16.65;93.80
35443;BME280;21561;55.654;37.592;2022-07-15T05:04:04;98448.88;;;16.69;93.74
35443;BME280;21561;55.654;37.592;2022-07-15T05:06:31;98446.09;;;16.72;92.22
35443;BME280;21561;55.654;37.592;2022-07-15T05:08:58;98461.81;;;16.72;91.56
35443;BME280;21561;55.654;37.592;2022-07-15T05:11:25;98444.16;;;16.75;92.13
35443;BME280;21561;55.654;37.592;2022-07-15T05:13:52;98419.41;;;16.81;91.99
35443;BME280;21561;55.654;37.592;2022-07-15T05:16:20;98404.94;;;16.91;91.75
35443;BME280;21561;55.654;37.592;2022-07-15T05:18:47;98400.31;;;16.96;91.30
35443;BME280;21561;55.654;37.592;2022-07-15T05:21:14;98398.91;;;17.07;90.75
35443;BME280;21561;55.654;37.592;2022-07-15T05:23:50;98400.28;;;17.14;90.86
35443;BME280;21561;55.654;37.592;2022-07-15T05:26:37;98403.47;;;17.19;89.58
35443;BME280;21561;55.654;37.592;2022-07-15T05:29:11;98401.44;;;17.24;89.59
35443;BME280;21561;55.654;37.592;2022-07-15T05:31:37;98394.78;;;17.34;88.83
35443;BME280;21561;55.654;37.592;2022-07-15T05:34:05;98409.16;;;17.43;86.79
35443;BME280;21561;55.654;37.592;2022-07-15T05:36:32;98413.22;;;17.49;86.54
35443;BME280;21561;55.654;37.592;2022-07-15T05:38:59;98423.13;;;17.44;84.13
35443;BME280;21561;55.654;37.592;2022-07-15T05:41:26;98410.00;;;17.44;84.94
35443;BME280;21561;55.654;37.592;2022-07-15T05:43:52;98402.91;;;17.46;86.00
35443;BME280;21561;55.654;37.592;2022-07-15T05:46:19;98394.53;;;17.55;85.34
35443;BME280;21561;55.654;37.592;2022-07-15T05:48:46;98395.88;;;17.62;82.09
35443;BME280;21561;55.654;37.592;2022-07-15T05:51:13;98414.66;;;17.70;82.06
35443;BME280;21561;55.654;37.592;2022-07-15T05:53:40;98426.84;;;17.71;79.83
35443;BME280;21561;55.654;37.592;2022-07-15T05:56:07;98414.81;;;17.67;80.46
35443;BME280;21561;55.654;37.592;2022-07-15T05:58:35;98418.03;;;17.72;81.98
35443;BME280;21561;55.654;37.592;2022-07-15T06:01:02;98410.59;;;17.81;81.75
35443;BME280;21561;55.654;37.592;2022-07-15T06:03:29;98413.97;;;17.83;81.44
35443;BME280;21561;55.654;37.592;2022-07-15T06:05:56;98420.84;;;17.85;79.55
35443;BME280;21561;55.654;37.592;2022-07-15T06:08:23;98414.44;;;17.91;80.45
35443;BME280;21561;55.654;37.592;2022-07-15T06:10:50;98400.84;;;17.99;80.47
35443;BME280;21561;55.654;37.592;2022-07-15T06:13:17;98405.81;;;18.03;79.27
35443;BME280;21561;55.654;37.592;2022-07-15T06:15:46;98396.78;;;18.09;78.75
35443;BME280;21561;55.654;37.592;2022-07-15T06:18:13;98412.25;;;18.13;78.52
35443;BME280;21561;55.654;37.592;2022-07-15T06:20:40;98404.78;;;18.22;77.69
35443;BME280;21561;55.654;37.592;2022-07-15T06:23:07;98407.88;;;18.28;76.73
35443;BME280;21561;55.654;37.592;2022-07-15T06:25:34;98405.06;;;18.31;76.40
35443;BME280;21561;55.654;37.592;2022-07-15T06:28:01;98404.72;;;18.38;77.58
35443;BME280;21561;55.654;37.592;2022-07-15T06:30:29;98413.81;;;18.46;75.85
35443;BME280;21561;55.654;37.592;2022-07-15T06:32:57;98390.75;;;18.51;75.29
35443;BME280;21561;55.654;37.592;2022-07-15T06:35:24;98388.06;;;18.53;75.17
35443;BME280;21561;55.654;37.592;2022-07-15T06:37:51;98402.59;;;18.59;75.61
35443;BME280;21561;55.654;37.592;2022-07-15T06:40:18;98404.13;;;18.63;75.43
35443;BME280;21561;55.654;37.592;2022-07-15T06:42:45;98398.47;;;18.69;74.83
35443;BME280;21561;55.654;37.592;2022-07-15T06:45:13;98403.47;;;18.74;74.40
35443;BME280;21561;55.654;37.592;2022-07-15T06:47:41;98405.66;;;18.81;75.50
35443;BME280;21561;55.654;37.592;2022-07-15T06:50:09;98409.59;;;18.88;75.37
35443;BME280;21561;55.654;37.592;2022-07-15T06:52:36;98416.34;;;18.93;74.13
35443;BME280;21561;55.654;37.592;2022-07-15T06:55:04;98417.75;;;18.84;73.06
35443;BME280;21561;55.654;37.592;2022-07-15T06:57:32;98420.66;;;18.79;73.68
35443;BME280;21561;55.654;37.592;2022-07-15T07:00:00;98437.03;;;18.84;74.11
35443;BME280;21561;55.654;37.592;2022-07-15T07:02:29;98438.09;;;18.80;72.18
35443;BME280;21561;55.654;37.592;2022-07-15T07:04:57;98429.13;;;18.84;72.50
35443;BME280;21561;55.654;37.592;2022-07-15T07:07:24;98435.72;;;18.92;71.48
35443;BME280;21561;55.654;37.592;2022-07-15T07:09:51;98428.56;;;18.94;72.17
35443;BME280;21561;55.654;37.592;2022-07-15T07:12:18;98436.91;;;19.00;73.22
35443;BME280;21561;55.654;37.592;2022-07-15T07:14:45;98444.78;;;19.00;73.65
35443;BME280;21561;55.654;37.592;2022-07-15T07:17:12;98430.47;;;19.06;70.19
35443;BME280;21561;55.654;37.592;2022-07-15T07:19:39;98424.81;;;19.12;71.97
35443;BME280;21561;55.654;37.592;2022-07-15T07:22:06;98440.97;;;19.20;72.42
35443;BME280;21561;55.654;37.592;2022-07-15T07:24:33;98441.88;;;19.34;72.64
35443;BME280;21561;55.654;37.592;2022-07-15T07:27:00;98442.44;;;19.39;72.53
35443;BME280;21561;55.654;37.592;2022-07-15T07:29:32;98449.41;;;19.40;70.80
35443;BME280;21561;55.654;37.592;2022-07-15T07:31:59;98441.69;;;19.51;70.61
35443;BME280;21561;55.654;37.592;2022-07-15T07:34:26;98457.72;;;19.61;70.49
35443;BME280;21561;55.654;37.592;2022-07-15T07:36:53;98429.84;;;19.58;63.56
35443;BME280;21561;55.654;37.592;2022-07-15T07:39:20;98449.56;;;19.65;65.64
35443;BME280;21561;55.654;37.592;2022-07-15T07:41:47;98457.44;;;19.80;68.01
35443;BME280;21561;55.654;37.592;2022-07-15T07:44:16;98464.00;;;19.87;66.22
35443;BME280;21561;55.654;37.592;2022-07-15T07:46:43;98448.16;;;20.01;65.35
35443;BME280;21561;55.654;37.592;2022-07-15T07:49:10;98446.94;;;20.20;64.75
35443;BME280;21561;55.654;37.592;2022-07-15T07:51:59;98447.72;;;20.35;64.43
35443;BME280;21561;55.654;37.592;2022-07-15T07:54:26;98449.13;;;20.40;63.69
35443;BME280;21561;55.654;37.592;2022-07-15T07:56:53;98408.84;;;20.38;58.70
35443;BME280;21561;55.654;37.592;2022-07-15T07:59:20;98417.88;;;20.21;61.04
35443;BME280;21561;55.654;37.592;2022-07-15T08:01:47;98434.94;;;20.16;61.63
35443;BME280;21561;55.654;37.592;2022-07-15T08:04:14;98444.00;;;20.12;61.48
35443;BME280;21561;55.654;37.592;2022-07-15T08:06:41;98430.38;;;20.05;60.69
35443;BME280;21561;55.654;37.592;2022-07-15T08:09:08;98404.78;;;20.07;59.92
35443;BME280;21561;55.654;37.592;2022-07-15T08:11:35;98415.75;;;20.14;60.67
35443;BME280;21561;55.654;37.592;2022-07-15T08:14:02;98410.53;;;20.27;60.45
35443;BME280;21561;55.654;37.592;2022-07-15T08:16:29;98405.28;;;20.39;59.85
35443;BME280;21561;55.654;37.592;2022-07-15T08:18:56;98367.13;;;20.45;57.14
35443;BME280;21561;55.654;37.592;2022-07-15T08:21:24;98378.50;;;20.46;57.50
35443;BME280;21561;55.654;37.592;2022-07-15T08:23:50;98422.38;;;20.59;58.05
35443;BME280;21561;55.654;37.592;2022-07-15T08:26:17;98420.94;;;20.68;57.41
35443;BME280;21561;55.654;37.592;2022-07-15T08:28:50;98422.84;;;20.79;56.33
35443;BME280;21561;55.654;37.592;2022-07-15T08:31:31;98411.22;;;20.82;55.62
35443;BME280;21561;55.654;37.592;2022-07-15T08:33:59;98408.47;;;20.83;55.21
35443;BME280;21561;55.654;37.592;2022-07-15T08:36:25;98417.88;;;20.74;55.92
35443;BME280;21561;55.654;37.592;2022-07-15T08:38:53;98328.78;;;20.79;51.37
35443;BME280;21561;55.654;37.592;2022-07-15T08:41:20;98384.44;;;20.88;53.96
35443;BME280;21561;55.654;37.592;2022-07-15T08:43:47;98434.84;;;20.96;55.39
35443;BME280;21561;55.654;37.592;2022-07-15T08:46:15;98402.91;;;20.88;53.86
35443;BME280;21561;55.654;37.592;2022-07-15T08:48:49;98351.34;;;20.84;51.35
35443;BME280;21561;55.654;37.592;2022-07-15T08:51:22;98382.97;;;20.84;51.26
35443;BME280;21561;55.654;37.592;2022-07-15T08:53:52;98363.28;;;20.76;51.13
35443;BME280;21561;55.654;37.592;2022-07-15T08:56:19;98331.63;;;20.76;50.14
35443;BME280;21561;55.654;37.592;2022-07-15T08:58:47;98363.75;;;20.82;51.04
35443;BME280;21561;55.654;37.592;2022-07-15T09:01:26;98364.81;;;20.92;50.70
35443;BME280;21561;55.654;37.592;2022-07-15T09:03:53;98392.25;;;21.02;52.04
35443;BME280;21561;55.654;37.592;2022-07-15T09:06:34;98441.50;;;21.14;52.85
35443;BME280;21561;55.654;37.592;2022-07-15T09:09:32;98376.81;;;21.22;50.87
35443;BME280;21561;55.654;37.592;2022-07-15T09:14:41;98166.97;;;21.17;43.98
35443;BME280;21561;55.654;37.592;2022-07-15T09:22:27;98342.38;;;21.36;49.03
35443;BME280;21561;55.654;37.592;2022-07-15T09:25:12;98239.53;;;21.47;44.68
35443;BME280;21561;55.654;37.592;2022-07-15T09:27:42;98262.56;;;21.45;46.91
35443;BME280;21561;55.654;37.592;2022-07-15T09:30:30;98271.38;;;21.44;46.81
35443;BME280;21561;55.654;37.592;2022-07-15T09:33:18;98243.34;;;21.43;45.54
35443;BME280;21561;55.654;37.592;2022-07-15T09:38:48;98211.53;;;21.69;44.20
35443;BME280;21561;55.654;37.592;2022-07-15T09:41:35;98177.00;;;21.83;43.83
35443;BME280;21561;55.654;37.592;2022-07-15T09:46:42;98198.13;;;21.83;44.50
35443;BME280;21561;55.654;37.592;2022-07-15T09:49:30;98086.16;;;21.63;41.25
35443;BME280;21561;55.654;37.592;2022-07-15T09:52:08;98049.56;;;21.81;41.04
35443;BME280;21561;55.654;37.592;2022-07-15T09:54:38;97985.81;;;22.41;39.01
35443;BME280;21561;55.654;37.592;2022-07-15T09:57:11;97943.38;;;23.17;37.91
35443;BME280;21561;55.654;37.592;2022-07-15T09:59:42;97855.47;;;23.73;37.27
35443;BME280;21561;55.654;37.592;2022-07-15T10:02:10;97848.13;;;24.06;36.93
35443;BME280;21561;55.654;37.592;2022-07-15T10:04:37;97748.50;;;24.33;34.70
35443;BME280;21561;55.654;37.592;2022-07-15T10:07:05;97756.91;;;24.18;35.64
35443;BME280;21561;55.654;37.592;2022-07-15T10:09:52;97796.19;;;24.43;36.47
35443;BME280;21561;55.654;37.592;2022-07-15T10:12:23;97804.94;;;24.63;35.21
35443;BME280;21561;55.654;37.592;2022-07-15T10:15:18;97782.28;;;25.06;35.93
35443;BME280;21561;55.654;37.592;2022-07-15T10:23:56;97651.59;;;26.44;31.84
35443;BME280;21561;55.654;37.592;2022-07-15T10:26:48;97584.56;;;26.67;31.62
35443;BME280;21561;55.654;37.592;2022-07-15T10:29:17;97566.06;;;26.15;31.64
35443;BME280;21561;55.654;37.592;2022-07-15T10:31:56;97623.75;;;26.22;32.72
35443;BME280;21561;55.654;37.592;2022-07-15T10:34:27;97641.97;;;25.39;33.90
35443;BME280;21561;55.654;37.592;2022-07-15T10:36:57;97701.00;;;25.23;34.53
35443;BME280;21561;55.654;37.592;2022-07-15T10:39:47;97733.09;;;25.83;34.82
35443;BME280;21561;55.654;37.592;2022-07-15T10:42:16;97722.84;;;26.33;33.47
35443;BME280;21561;55.654;37.592;2022-07-15T10:47:26;97660.13;;;27.07;32.64
35443;BME280;21561;55.654;37.592;2022-07-15T10:49:53;97637.47;;;27.11;32.16
35443;BME280;21561;55.654;37.592;2022-07-15T10:52:29;97655.94;;;26.54;33.03
35443;BME280;21561;55.654;37.592;2022-07-15T11:13:47;98152.91;;;23.53;40.78
35443;BME280;21561;55.654;37.592;2022-07-15T11:16:16;98140.75;;;24.33;39.21
35443;BME280;21561;55.654;37.592;2022-07-15T11:18:55;98057.97;;;24.60;38.05
35443;BME280;21561;55.654;37.592;2022-07-15T11:21:24;98020.66;;;25.20;36.88
35443;BME280;21561;55.654;37.592;2022-07-15T11:23:52;97952.63;;;26.30;35.73
35443;BME280;21561;55.654;37.592;2022-07-15T11:26:23;97910.94;;;27.27;34.35
35443;BME280;21561;55.654;37.592;2022-07-15T11:28:55;97804.31;;;27.45;32.76
35443;BME280;21561;55.654;37.592;2022-07-15T11:31:22;97725.72;;;27.33;32.43
35443;BME280;21561;55.654;37.592;2022-07-15T11:33:56;97741.00;;;27.22;33.10
35443;BME280;21561;55.654;37.592;2022-07-15T11:36:25;97739.72;;;27.35;32.74
35443;BME280;21561;55.654;37.592;2022-07-15T11:38:52;97698.28;;;26.73;32.50
35443;BME280;21561;55.654;37.592;2022-07-15T11:41:19;97738.38;;;26.45;33.60
35443;BME280;21561;55.654;37.592;2022-07-15T11:44:10;97787.28;;;25.90;34.46
35443;BME280;21561;55.654;37.592;2022-07-15T11:46:57;97864.09;;;24.73;36.78
35443;BME280;21561;55.654;37.592;2022-07-15T11:49:36;97983.41;;;24.44;38.49
35443;BME280;21561;55.654;37.592;2022-07-15T11:52:08;98041.00;;;24.12;39.41
35443;BME280;21561;55.654;37.592;2022-07-15T11:54:36;98064.13;;;24.80;38.64
35443;BME280;21561;55.654;37.592;2022-07-15T11:57:09;98071.13;;;24.91;38.36
35443;BME280;21561;55.654;37.592;2022-07-15T11:59:37;98082.50;;;24.43;39.11
35443;BME280;21561;55.654;37.592;2022-07-15T12:02:12;98134.06;;;24.29;39.20
35443;BME280;21561;55.654;37.592;2022-07-15T12:04:41;98131.53;;;23.66;39.30
35443;BME280;21561;55.654;37.592;2022-07-15T12:07:11;98128.63;;;23.48;39.29
35443;BME280;21561;55.654;37.592;2022-07-15T12:09:48;98151.84;;;24.07;38.75
35443;BME280;21561;55.654;37.592;2022-07-15T12:12:16;98103.59;;;24.13;38.30
35443;BME280;21561;55.654;37.592;2022-07-15T12:14:50;98095.97;;;24.80;37.70
35443;BME280;21561;55.654;37.592;2022-07-15T12:17:18;98048.59;;;25.24;36.17
35443;BME280;21561;55.654;37.592;2022-07-15T12:19:47;98040.09;;;24.91;37.71
35443;BME280;21561;55.654;37.592;2022-07-15T12:22:16;98037.81;;;24.48;37.32
35443;BME280;21561;55.654;37.592;2022-07-15T12:24:45;98068.66;;;23.89;38.07
35443;BME280;21561;55.654;37.592;2022-07-15T12:27:13;98062.63;;;24.27;37.19
35443;BME280;21561;55.654;37.592;2022-07-15T12:29:41;98021.78;;;25.08;35.84
35443;BME280;21561;55.654;37.592;2022-07-15T12:32:29;97991.34;;;25.02;35.27
35443;BME280;21561;55.654;37.592;2022-07-15T12:34:59;97975.59;;;24.81;35.67
35443;BME280;21561;55.654;37.592;2022-07-15T12:40:10;98044.16;;;24.06;38.09
35443;BME280;21561;55.654;37.592;2022-07-15T12:42:40;98095.25;;;23.56;39.04
35443;BME280;21561;55.654;37.592;2022-07-15T12:45:08;98150.09;;;23.12;40.58
35443;BME280;21561;55.654;37.592;2022-07-15T12:47:59;98206.38;;;23.14;40.60
35443;BME280;21561;55.654;37.592;2022-07-15T12:50:27;98241.38;;;23.06;40.89
35443;BME280;21561;55.654;37.592;2022-07-15T12:52:55;98217.09;;;23.66;39.00
35443;BME280;21561;55.654;37.592;2022-07-15T12:55:39;98156.47;;;24.15;37.41
35443;BME280;21561;55.654;37.592;2022-07-15T12:58:11;98144.38;;;23.91;37.67
35443;BME280;21561;55.654;37.592;2022-07-15T13:00:40;98101.19;;;24.41;36.98
35443;BME280;21561;55.654;37.592;2022-07-15T13:03:17;98068.59;;;24.89;36.42
35443;BME280;21561;55.654;37.592;2022-07-15T13:05:52;98037.53;;;25.39;35.85
35443;BME280;21561;55.654;37.592;2022-07-15T13:08:21;97952.34;;;25.60;33.24
35443;BME280;21561;55.654;37.592;2022-07-15T13:10:51;97915.91;;;25.52;33.31
35443;BME280;21561;55.654;37.592;2022-07-15T13:13:19;97903.81;;;25.40;33.46
35443;BME280;21561;55.654;37.592;2022-07-15T13:15:47;97863.25;;;25.65;33.09
35443;BME280;21561;55.654;37.592;2022-07-15T13:18:15;97829.19;;;26.59;32.13
35443;BME280;21561;55.654;37.592;2022-07-15T13:20:43;97782.25;;;27.18;31.24
35443;BME280;21561;55.654;37.592;2022-07-15T13:23:10;97738.34;;;27.22;30.46
35443;BME280;21561;55.654;37.592;2022-07-15T13:25:38;97712.59;;;26.72;30.93
35443;BME280;21561;55.654;37.592;2022-07-15T13:28:08;97728.91;;;26.85;30.82
35443;BME280;21561;55.654;37.592;2022-07-15T13:30:36;97736.84;;;26.77;31.49
35443;BME280;21561;55.654;37.592;2022-07-15T13:33:04;97717.31;;;26.95;30.98
35443;BME280;21561;55.654;37.592;2022-07-15T13:35:32;97722.00;;;27.01;31.20
35443;BME280;21561;55.654;37.592;2022-07-15T13:37:59;97689.44;;;27.40;30.25
35443;BME280;21561;55.654;37.592;2022-07-15T13:40:25;97667.47;;;27.79;29.92
35443;BME280;21561;55.654;37.592;2022-07-15T13:42:52;97634.19;;;27.75;29.82